Time;durP1;ratioP1;P1;durP2;ratioP2;P2;SDS_P1;SDS_P2;PMS_P1;PMS_P2;Temp;Humidity;BMP_temperature;BMP_pressure;BME280_temperature;BME280_humidity;BME280_pressure;Samples;Min_cycle;Max_cycle;Signal;HPM_P1;HPM_P2
2023/11/16 00:01:37;;;;;;;6.30;5.70;;;;;;;15.11;52.54;100858.75;106968;1256;22515;-60
2023/11/16 00:04:06;;;;;;;6.00;5.40;;;;;;;15.12;52.45;100856.63;106987;1257;24222;-60
2023/11/16 00:06:34;;;;;;;6.40;5.40;;;;;;;15.11;52.51;100854.58;106839;1270;22794;-59
2023/11/16 00:09:02;;;;;;;6.50;5.90;;;;;;;15.07;52.89;100854.73;106763;1260;25275;-59
2023/11/16 00:11:30;;;;;;;8.30;5.80;;;;;;;15.02;53.43;100857.69;106921;1257;22520;-59
2023/11/16 00:13:58;;;;;;;6.90;5.50;;;;;;;14.97;54.03;100854.92;106806;1257;25215;-59
2023/11/16 00:16:28;;;;;;;6.70;5.10;;;;;;;14.93;54.61;100853.38;106609;1259;22535;-61
2023/11/16 00:18:57;;;;;;;5.80;5.10;;;;;;;14.92;55.02;100856.04;106673;1256;24192;-59
2023/11/16 00:21:26;;;;;;;8.30;6.40;;;;;;;14.93;55.39;100863.66;106048;1260;1015632;-59
2023/11/16 00:23:54;;;;;;;7.20;6.10;;;;;;;14.93;56.00;100871.69;106724;1270;22649;-59
2023/11/16 00:26:22;;;;;;;7.10;6.00;;;;;;;15.01;56.29;100881.70;106709;1259;22527;-59
2023/11/16 00:28:54;;;;;;;8.00;6.20;;;;;;;15.08;56.44;100890.00;106804;1256;23043;-59
2023/11/16 00:31:23;;;;;;;6.80;6.10;;;;;;;15.15;56.35;100895.28;106429;1261;22543;-59
2023/11/16 00:33:51;;;;;;;6.80;5.70;;;;;;;15.19;56.20;100901.79;106563;1268;22533;-60
2023/11/16 00:36:19;;;;;;;6.60;5.40;;;;;;;15.04;56.30;100902.19;106744;1260;25334;-60
2023/11/16 00:38:47;;;;;;;5.50;5.00;;;;;;;15.03;55.94;100901.53;106728;1263;22534;-59
2023/11/16 00:41:16;;;;;;;5.50;4.90;;;;;;;15.04;55.63;100907.45;106698;1257;22531;-59
2023/11/16 00:43:44;;;;;;;5.80;5.00;;;;;;;15.05;55.48;100914.39;106615;1257;24265;-59
2023/11/16 00:46:13;;;;;;;6.80;5.30;;;;;;;15.06;55.34;100914.00;106741;1256;23893;-60
2023/11/16 00:48:42;;;;;;;6.40;5.80;;;;;;;15.06;55.29;100914.33;106383;1263;23869;-60
2023/11/16 00:51:11;;;;;;;6.30;5.60;;;;;;;15.08;55.21;100910.27;106623;1263;22595;-59
2023/11/16 00:53:42;;;;;;;5.30;4.80;;;;;;;15.10;55.20;100910.36;106631;1258;22530;-59
2023/11/16 00:56:11;;;;;;;5.80;5.10;;;;;;;15.11;55.17;100912.40;106443;1261;22540;-60
2023/11/16 00:58:39;;;;;;;6.60;5.30;;;;;;;15.12;55.19;100918.64;106692;1267;24301;-60
2023/11/16 01:01:07;;;;;;;6.90;6.00;;;;;;;15.15;55.13;100915.55;106623;1259;22524;-60
2023/11/16 01:03:36;;;;;;;6.20;5.60;;;;;;;15.18;55.06;100917.02;106520;1260;22514;-59
2023/11/16 01:06:05;;;;;;;6.20;5.60;;;;;;;15.20;55.11;100920.45;106560;1260;22529;-59
2023/11/16 01:08:36;;;;;;;6.50;5.80;;;;;;;15.21;55.12;100926.16;106449;1262;24323;-60
2023/11/16 01:11:07;;;;;;;6.30;5.70;;;;;;;15.23;55.08;100929.23;106543;1259;25365;-60
2023/11/16 01:13:41;;;;;;;7.70;6.40;;;;;;;15.24;55.21;100927.61;106948;1267;22529;-60
2023/11/16 01:16:18;;;;;;;6.80;6.10;;;;;;;15.26;55.31;100934.01;106868;1258;25271;-60
2023/11/16 01:18:46;;;;;;;8.50;5.80;;;;;;;15.30;55.31;100941.02;106215;1267;1014901;-60
2023/11/16 01:21:14;;;;;;;7.70;6.80;;;;;;;15.32;55.47;100935.35;106946;1257;22544;-60
2023/11/16 01:23:47;;;;;;;7.70;6.40;;;;;;;15.34;55.63;100936.15;106911;1260;22534;-60
2023/11/16 01:26:16;;;;;;;7.70;6.40;;;;;;;15.37;55.52;100948.11;106876;1270;25239;-60
2023/11/16 01:28:49;;;;;;;7.70;7.00;;;;;;;15.39;55.64;100945.58;106980;1259;24295;-59
2023/11/16 01:31:19;;;;;;;7.60;6.90;;;;;;;15.41;55.58;100943.24;107039;1256;25271;-59
2023/11/16 01:33:47;;;;;;;6.70;6.10;;;;;;;15.43;55.62;100943.16;106965;1260;22526;-59
2023/11/16 01:36:16;;;;;;;6.10;5.60;;;;;;;15.44;55.53;100941.20;106744;1260;22539;-59
2023/11/16 01:38:45;;;;;;;6.90;6.20;;;;;;;15.44;55.29;100938.59;106746;1263;25331;-60
2023/11/16 01:41:14;;;;;;;6.90;6.30;;;;;;;15.45;55.36;100936.27;107086;1256;25297;-59
2023/11/16 01:43:42;;;;;;;6.50;5.80;;;;;;;15.46;55.35;100934.48;107114;1254;22534;-60
2023/11/16 01:46:11;;;;;;;5.60;5.10;;;;;;;15.47;55.18;100934.63;107035;1257;24360;-59
2023/11/16 01:48:41;;;;;;;6.90;6.10;;;;;;;15.45;55.10;100929.44;107019;1259;22534;-59
2023/11/16 01:51:13;;;;;;;6.30;5.70;;;;;;;15.42;55.26;100928.15;107149;1257;22549;-60
2023/11/16 01:53:43;;;;;;;6.40;5.80;;;;;;;15.43;55.31;100929.54;106900;1260;24248;-59
2023/11/16 01:56:11;;;;;;;6.50;5.90;;;;;;;15.46;55.30;100930.47;106862;1260;22524;-59
2023/11/16 01:58:39;;;;;;;6.40;5.70;;;;;;;15.47;55.47;100929.55;106936;1260;22561;-60
2023/11/16 02:01:09;;;;;;;7.80;5.70;;;;;;;15.47;55.55;100925.52;106586;1259;22543;-59
2023/11/16 02:03:37;;;;;;;7.30;6.10;;;;;;;15.51;55.61;100922.42;106671;1275;22527;-59
2023/11/16 02:06:07;;;;;;;7.00;6.30;;;;;;;15.69;55.15;100926.76;106620;1254;22547;-59
2023/11/16 02:08:36;;;;;;;6.50;5.80;;;;;;;15.61;55.42;100923.38;106729;1256;22546;-59
2023/11/16 02:11:05;;;;;;;8.10;5.90;;;;;;;15.57;55.61;100919.55;106823;1256;25246;-60
2023/11/16 02:13:34;;;;;;;6.00;5.40;;;;;;;15.61;55.70;100917.28;106827;1263;22533;-59
2023/11/16 02:16:04;;;;;;;6.00;5.40;;;;;;;15.80;55.15;100914.24;106823;1260;25230;-59
2023/11/16 02:18:33;;;;;;;5.60;5.10;;;;;;;15.86;55.08;100906.98;106895;1260;22539;-61
2023/11/16 02:21:03;;;;;;;6.00;5.40;;;;;;;15.88;55.40;100906.71;107013;1261;22523;-59
2023/11/16 02:23:32;;;;;;;5.70;5.10;;;;;;;15.90;55.55;100909.46;106999;1254;22538;-59
2023/11/16 02:26:00;;;;;;;7.40;4.90;;;;;;;15.92;55.77;100915.31;106913;1259;25243;-59
2023/11/16 02:28:30;;;;;;;5.90;4.90;;;;;;;15.93;55.92;100915.44;106769;1273;22530;-59
2023/11/16 02:31:00;;;;;;;6.90;5.80;;;;;;;15.96;56.05;100921.44;107041;1256;22528;-59
2023/11/16 02:33:29;;;;;;;7.10;5.20;;;;;;;16.01;56.13;100930.13;106977;1266;25230;-59
2023/11/16 02:35:57;;;;;;;6.00;5.40;;;;;;;16.07;56.05;100938.31;106775;1262;23896;-59
2023/11/16 02:38:25;;;;;;;5.90;5.20;;;;;;;16.11;56.01;100938.64;107033;1266;22530;-59
2023/11/16 02:40:53;;;;;;;5.60;4.90;;;;;;;16.14;55.98;100942.55;107063;1267;22530;-59
2023/11/16 02:43:21;;;;;;;7.20;4.90;;;;;;;16.15;55.91;100945.85;107004;1256;24199;-59
2023/11/16 02:45:49;;;;;;;6.50;5.80;;;;;;;16.15;55.94;100947.77;106793;1265;22546;-59
2023/11/16 02:48:17;;;;;;;6.90;5.60;;;;;;;16.15;56.02;100949.16;107132;1256;25371;-59
2023/11/16 02:50:45;;;;;;;6.30;5.00;;;;;;;16.19;55.95;100947.95;106992;1267;22529;-60
2023/11/16 02:53:13;;;;;;;6.60;5.60;;;;;;;16.23;55.87;100949.34;106968;1266;22530;-59
2023/11/16 02:55:41;;;;;;;6.40;5.80;;;;;;;16.29;55.66;100951.04;107043;1260;22527;-58
2023/11/16 02:58:09;;;;;;;5.50;4.70;;;;;;;16.33;55.50;100954.71;106904;1266;22527;-59
2023/11/16 03:00:36;;;;;;;6.30;5.70;;;;;;;16.32;55.30;100961.77;106889;1260;22546;-59
2023/11/16 03:03:06;;;;;;;5.80;5.20;;;;;;;16.31;55.13;100963.38;106764;1267;22541;-59
2023/11/16 03:05:34;;;;;;;5.90;5.20;;;;;;;16.31;55.02;100969.52;106923;1263;22530;-59
2023/11/16 03:08:02;;;;;;;6.00;5.40;;;;;;;16.30;54.90;100974.59;104771;1256;1003590;-59
2023/11/16 03:10:30;;;;;;;6.30;5.70;;;;;;;16.30;54.79;100981.80;106980;1262;22518;-59
2023/11/16 03:12:58;;;;;;;5.90;5.40;;;;;;;16.29;54.54;100989.89;106964;1272;25243;-59
2023/11/16 03:15:26;;;;;;;6.40;5.80;;;;;;;16.29;54.39;100989.71;106731;1270;22787;-59
2023/11/16 03:17:56;;;;;;;5.30;4.90;;;;;;;16.34;54.08;100994.60;107052;1259;24209;-59
2023/11/16 03:20:25;;;;;;;5.90;5.30;;;;;;;16.35;53.86;101002.08;106833;1264;22535;-59
2023/11/16 03:22:53;;;;;;;6.50;5.60;;;;;;;16.34;53.68;101001.42;107068;1259;25252;-59
2023/11/16 03:25:21;;;;;;;5.50;5.00;;;;;;;16.33;53.65;101004.79;106880;1263;22522;-59
2023/11/16 03:27:49;;;;;;;6.00;5.10;;;;;;;16.26;53.70;101005.40;107027;1267;22517;-59
2023/11/16 03:30:17;;;;;;;5.40;4.90;;;;;;;16.23;53.82;101006.58;106874;1267;22523;-59
2023/11/16 03:32:48;;;;;;;5.60;4.70;;;;;;;16.22;53.86;101008.75;107092;1256;22529;-59
2023/11/16 03:35:16;;;;;;;5.30;4.80;;;;;;;16.18;53.87;101014.84;107003;1255;25191;-59
2023/11/16 03:37:46;;;;;;;5.10;4.60;;;;;;;16.20;53.67;101018.07;106939;1263;22533;-59
2023/11/16 03:40:13;;;;;;;5.80;4.20;;;;;;;16.25;53.59;101022.77;106732;1270;22534;-59
2023/11/16 03:42:42;;;;;;;5.00;4.30;;;;;;;16.26;53.61;101022.55;106616;1267;25338;-59
2023/11/16 03:45:11;;;;;;;4.70;3.80;;;;;;;16.28;53.52;101026.70;106303;1263;24170;-59
2023/11/16 03:47:40;;;;;;;3.90;3.50;;;;;;;16.22;53.74;101029.04;106762;1263;25243;-59
2023/11/16 03:50:10;;;;;;;4.20;3.80;;;;;;;16.15;53.78;101028.77;106675;1257;22527;-59
2023/11/16 03:52:39;;;;;;;3.70;3.30;;;;;;;16.20;53.72;101035.78;106491;1259;22566;-60
2023/11/16 03:55:07;;;;;;;5.10;3.70;;;;;;;16.28;53.49;101042.11;106547;1256;22533;-59
2023/11/16 03:57:36;;;;;;;4.50;4.10;;;;;;;16.30;53.32;101043.41;106362;1261;22533;-59
2023/11/16 04:00:07;;;;;;;4.20;3.60;;;;;;;16.32;53.21;101051.05;106556;1261;22537;-59
2023/11/16 04:02:41;;;;;;;5.10;3.90;;;;;;;16.35;53.12;101051.30;106466;1260;24214;-59
2023/11/16 04:05:09;;;;;;;4.70;4.10;;;;;;;16.35;52.96;101052.67;106670;1264;23855;-59
2023/11/16 04:07:37;;;;;;;4.20;3.80;;;;;;;16.35;52.82;101054.44;106684;1270;22574;-59
2023/11/16 04:10:09;;;;;;;4.00;3.60;;;;;;;16.34;52.82;101059.04;106816;1267;22527;-59
2023/11/16 04:12:39;;;;;;;4.30;4.00;;;;;;;16.33;52.74;101060.12;106649;1261;22543;-59
2023/11/16 04:15:13;;;;;;;3.80;3.50;;;;;;;16.32;52.66;101065.41;106833;1258;23896;-59
2023/11/16 04:17:44;;;;;;;5.00;4.10;;;;;;;16.30;52.62;101068.25;106590;1260;22543;-59
2023/11/16 04:20:13;;;;;;;5.10;4.60;;;;;;;16.24;52.80;101073.77;106796;1254;22530;-59
2023/11/16 04:22:41;;;;;;;4.80;4.40;;;;;;;16.26;52.73;101072.98;106928;1254;22530;-59
2023/11/16 04:25:22;;;;;;;5.60;4.30;;;;;;;16.27;52.69;101080.64;106771;1265;22519;-59
2023/11/16 04:27:54;;;;;;;4.70;4.10;;;;;;;16.28;52.56;101090.95;106892;1257;22539;-59
2023/11/16 04:30:22;;;;;;;4.60;4.20;;;;;;;16.27;52.49;101092.54;106862;1269;22526;-59
2023/11/16 04:32:51;;;;;;;6.90;4.20;;;;;;;16.26;52.47;101096.77;106996;1257;24363;-59
2023/11/16 04:35:20;;;;;;;5.40;4.50;;;;;;;16.25;52.34;101103.65;106771;1257;23900;-59
2023/11/16 04:37:49;;;;;;;4.90;4.50;;;;;;;16.19;52.35;101105.98;106968;1263;22536;-59
2023/11/16 04:40:17;;;;;;;5.70;4.60;;;;;;;15.97;52.84;101113.69;107013;1256;24241;-59
2023/11/16 04:42:47;;;;;;;6.00;5.00;;;;;;;15.97;52.74;101115.24;106573;1267;627701;-59
2023/11/16 04:45:15;;;;;;;5.90;3.90;;;;;;;15.91;52.98;101110.24;106869;1254;22553;-59
2023/11/16 04:47:46;;;;;;;4.50;4.10;;;;;;;15.87;53.07;101108.48;106922;1260;22561;-60
2023/11/16 04:50:18;;;;;;;5.10;4.50;;;;;;;15.83;53.22;101112.67;107105;1263;22537;-59
2023/11/16 04:52:46;;;;;;;4.60;4.00;;;;;;;15.84;52.95;101115.06;106734;1271;22531;-59
2023/11/16 04:55:15;;;;;;;4.60;4.10;;;;;;;15.81;53.06;101119.73;106869;1258;22525;-59
2023/11/16 04:57:45;;;;;;;4.50;4.10;;;;;;;15.80;53.20;101120.98;106744;1272;22526;-59
2023/11/16 05:00:14;;;;;;;4.30;3.90;;;;;;;15.79;53.26;101126.97;106392;1272;22535;-59
2023/11/16 05:02:43;;;;;;;5.00;4.30;;;;;;;15.85;53.17;101125.00;107025;1267;22647;-59
2023/11/16 05:05:11;;;;;;;4.40;3.90;;;;;;;15.85;53.15;101127.96;106883;1258;22533;-59
2023/11/16 05:07:39;;;;;;;5.50;4.20;;;;;;;15.86;53.20;101129.53;107035;1254;22534;-59
2023/11/16 05:10:10;;;;;;;4.70;4.20;;;;;;;15.86;53.22;101125.14;106992;1257;22543;-59
2023/11/16 05:12:39;;;;;;;;;;;;;;;15.87;53.24;101122.83;107238;1253;22505;-59
2023/11/16 05:15:10;;;;;;;5.30;4.30;;;;;;;15.87;53.25;101126.67;107004;1254;22532;-59
2023/11/16 05:17:38;;;;;;;4.90;4.20;;;;;;;15.88;53.34;101126.83;107053;1257;22538;-59
2023/11/16 05:20:07;;;;;;;4.70;4.20;;;;;;;15.88;53.33;101133.29;106922;1256;24224;-59
2023/11/16 05:22:35;;;;;;;5.50;4.60;;;;;;;15.90;53.38;101139.31;106690;1260;24222;-59
2023/11/16 05:25:06;;;;;;;5.90;4.80;;;;;;;15.92;53.32;101138.92;106458;1259;22560;-59
2023/11/16 05:27:34;;;;;;;4.70;4.30;;;;;;;15.88;53.39;101138.88;106701;1256;22533;-59
2023/11/16 05:30:03;;;;;;;6.20;4.50;;;;;;;15.93;53.25;101142.90;106610;1260;22533;-59
2023/11/16 05:32:31;;;;;;;4.90;4.30;;;;;;;15.96;53.21;101150.30;106663;1254;25354;-59
2023/11/16 05:34:59;;;;;;;5.10;4.20;;;;;;;15.95;53.11;101161.01;106409;1257;25505;-59
2023/11/16 05:37:26;;;;;;;7.10;4.50;;;;;;;15.99;53.08;101164.20;106299;1261;22603;-59
2023/11/16 05:39:55;;;;;;;4.80;4.30;;;;;;;15.96;53.12;101170.09;106502;1258;22549;-59
2023/11/16 05:42:24;;;;;;;4.50;4.00;;;;;;;15.92;53.13;101173.88;106524;1256;23445;-59
2023/11/16 05:44:52;;;;;;;5.10;4.40;;;;;;;16.01;53.00;101180.21;106741;1257;22527;-59
2023/11/16 05:47:20;;;;;;;4.70;4.10;;;;;;;16.15;52.50;101185.26;106586;1257;22536;-59
2023/11/16 05:49:48;;;;;;;5.10;4.60;;;;;;;16.27;52.14;101190.58;106704;1270;22520;-59
2023/11/16 05:52:15;;;;;;;5.10;4.50;;;;;;;16.30;52.11;101191.17;106706;1262;22525;-59
2023/11/16 05:54:45;;;;;;;5.00;4.50;;;;;;;16.33;51.93;101194.93;106268;1259;22533;-59
2023/11/16 05:57:14;;;;;;;5.00;4.40;;;;;;;16.33;51.86;101194.42;106680;1257;22535;-59
2023/11/16 05:59:42;;;;;;;5.70;4.40;;;;;;;16.33;51.96;101194.05;106660;1254;25242;-59
2023/11/16 06:02:10;;;;;;;5.60;4.40;;;;;;;16.35;51.80;101199.75;106863;1267;22524;-59
2023/11/16 06:04:38;;;;;;;4.90;4.00;;;;;;;16.36;51.86;101205.69;106957;1255;22905;-59
2023/11/16 06:07:06;;;;;;;4.90;4.20;;;;;;;16.38;51.78;101211.91;107008;1261;22780;-59
2023/11/16 06:09:33;;;;;;;5.20;4.60;;;;;;;16.37;51.83;101213.50;107011;1269;22541;-59
2023/11/16 06:12:02;;;;;;;4.70;4.30;;;;;;;16.37;51.72;101215.27;106959;1261;22524;-59
2023/11/16 06:14:32;;;;;;;5.70;4.30;;;;;;;16.31;51.78;101214.77;106750;1257;22527;-59
2023/11/16 06:17:13;;;;;;;5.30;4.30;;;;;;;16.35;51.63;101217.64;106976;1258;22531;-59
2023/11/16 06:19:40;;;;;;;5.20;4.20;;;;;;;16.34;51.79;101222.40;106949;1254;22543;-59
2023/11/16 06:22:10;;;;;;;4.60;4.20;;;;;;;16.31;51.87;101221.08;106930;1254;22540;-59
2023/11/16 06:24:38;;;;;;;5.00;4.20;;;;;;;16.35;51.90;101224.99;107101;1260;22526;-59
2023/11/16 06:27:06;;;;;;;5.40;4.40;;;;;;;16.36;51.75;101228.77;107006;1256;22548;-59
2023/11/16 06:29:34;;;;;;;5.80;4.30;;;;;;;16.41;51.71;101233.48;106902;1267;22526;-59
2023/11/16 06:32:05;;;;;;;4.90;4.30;;;;;;;16.46;51.58;101230.48;106958;1257;22533;-59
2023/11/16 06:34:34;;;;;;;4.40;4.00;;;;;;;16.48;51.60;101229.02;106692;1264;24240;-60
2023/11/16 06:37:04;;;;;;;4.90;4.40;;;;;;;16.50;51.51;101238.59;106820;1257;24363;-59
2023/11/16 06:39:32;;;;;;;6.30;4.60;;;;;;;16.51;51.61;101240.46;106881;1253;25246;-59
2023/11/16 06:42:01;;;;;;;5.10;4.60;;;;;;;16.56;51.46;101242.23;106912;1260;22530;-59
2023/11/16 06:44:29;;;;;;;5.20;4.70;;;;;;;16.62;51.32;101247.61;107084;1253;22540;-59
2023/11/16 06:46:57;;;;;;;5.30;4.10;;;;;;;16.63;51.34;101247.58;106688;1262;22534;-59
2023/11/16 06:49:26;;;;;;;6.50;4.60;;;;;;;16.64;51.25;101251.02;106932;1257;22528;-59
2023/11/16 06:51:54;;;;;;;4.50;4.10;;;;;;;16.66;51.23;101253.42;106991;1258;22541;-59
2023/11/16 06:54:23;;;;;;;5.00;4.50;;;;;;;16.67;51.29;101254.39;106846;1254;22544;-59
2023/11/16 06:56:53;;;;;;;5.10;4.30;;;;;;;16.69;51.21;101253.64;106923;1256;22530;-59
2023/11/16 06:59:24;;;;;;;5.60;5.00;;;;;;;16.71;51.04;101256.86;107123;1256;25443;-59
2023/11/16 07:01:52;;;;;;;4.40;4.00;;;;;;;16.73;50.80;101263.96;107084;1254;22570;-59
2023/11/16 07:04:21;;;;;;;5.70;4.70;;;;;;;16.71;50.45;101268.77;107091;1253;22546;-58
2023/11/16 07:06:49;;;;;;;5.30;4.60;;;;;;;16.69;50.50;101269.73;106870;1270;25259;-59
2023/11/16 07:09:17;;;;;;;4.40;4.00;;;;;;;16.69;50.66;101271.65;106849;1254;22537;-59
2023/11/16 07:11:47;;;;;;;4.70;4.20;;;;;;;16.70;50.61;101270.21;106714;1257;22532;-59
2023/11/16 07:14:15;;;;;;;4.70;4.30;;;;;;;16.70;50.42;101277.91;106702;1257;25242;-59
2023/11/16 07:16:44;;;;;;;4.10;3.80;;;;;;;16.70;50.31;101279.70;106633;1254;25261;-59
2023/11/16 07:19:12;;;;;;;5.40;4.00;;;;;;;16.66;50.33;101281.40;106710;1260;22533;-59
2023/11/16 07:21:40;;;;;;;4.80;4.30;;;;;;;16.67;50.53;101292.05;106870;1261;22813;-59
2023/11/16 07:24:10;;;;;;;4.30;3.90;;;;;;;16.73;50.56;101296.02;106776;1261;22631;-59
2023/11/16 07:26:40;;;;;;;4.40;3.80;;;;;;;16.84;50.35;101298.75;106814;1253;22540;-60
2023/11/16 07:29:08;;;;;;;5.10;4.60;;;;;;;16.97;50.11;101295.45;106877;1254;24247;-59
2023/11/16 07:31:37;;;;;;;4.70;4.30;;;;;;;17.05;49.98;101295.82;106853;1264;22650;-59
2023/11/16 07:34:05;;;;;;;4.80;4.30;;;;;;;17.11;49.84;101301.86;106827;1256;22529;-59
2023/11/16 07:36:33;;;;;;;5.00;4.20;;;;;;;17.19;49.55;101299.46;106979;1258;22530;-59
2023/11/16 07:39:01;;;;;;;8.20;5.00;;;;;;;17.25;49.50;101298.85;106907;1254;22533;-59
2023/11/16 07:41:30;;;;;;;6.00;4.10;;;;;;;17.29;49.47;101296.07;106777;1267;22539;-59
2023/11/16 07:43:58;;;;;;;4.50;4.00;;;;;;;17.32;49.07;101298.56;106790;1256;24208;-59
2023/11/16 07:46:26;;;;;;;4.40;3.00;;;;;;;17.31;48.61;101301.92;106952;1253;25287;-59
2023/11/16 07:48:54;;;;;;;3.80;3.20;;;;;;;17.24;48.18;101299.92;107057;1254;22533;-59
2023/11/16 07:51:22;;;;;;;5.10;3.40;;;;;;;17.12;47.88;101300.27;107025;1256;22530;-59
2023/11/16 07:53:57;;;;;;;4.70;3.60;;;;;;;17.04;47.86;101303.94;106888;1259;25465;-59
2023/11/16 07:56:25;;;;;;;3.20;2.90;;;;;;;16.92;48.38;101312.80;107040;1256;22543;-59
2023/11/16 07:58:54;;;;;;;3.50;3.20;;;;;;;16.88;48.40;101316.64;107050;1256;22542;-60
2023/11/16 08:01:28;;;;;;;4.00;3.20;;;;;;;16.90;48.24;101309.19;107053;1256;25362;-59
2023/11/16 08:03:56;;;;;;;3.30;3.00;;;;;;;16.92;48.22;101305.98;107116;1256;22526;-59
2023/11/16 08:06:26;;;;;;;3.00;2.70;;;;;;;16.93;48.05;101305.92;107119;1253;22538;-60
2023/11/16 08:08:57;;;;;;;3.50;3.00;;;;;;;16.93;47.79;101305.60;106900;1269;24221;-60
2023/11/16 08:11:25;;;;;;;3.80;3.20;;;;;;;16.91;47.65;101305.32;106754;1259;25366;-60
2023/11/16 08:13:53;;;;;;;4.20;3.30;;;;;;;16.88;47.57;101308.05;106973;1257;22533;-60
2023/11/16 08:16:21;;;;;;;4.00;3.00;;;;;;;16.86;47.41;101305.15;106699;1258;22914;-59
2023/11/16 08:18:49;;;;;;;3.60;3.10;;;;;;;16.84;47.46;101299.96;106903;1258;22579;-60
2023/11/16 08:21:17;;;;;;;3.80;3.00;;;;;;;16.85;47.09;101297.49;106802;1259;22527;-60
2023/11/16 08:23:45;;;;;;;3.70;2.80;;;;;;;16.83;46.90;101301.77;106894;1254;22534;-60
2023/11/16 08:26:19;;;;;;;2.80;2.50;;;;;;;16.81;46.82;101297.84;107012;1254;22536;-60
2023/11/16 08:28:48;;;;;;;3.10;2.70;;;;;;;16.81;46.34;101303.94;107105;1256;22539;-61
2023/11/16 08:31:16;;;;;;;2.80;2.40;;;;;;;16.83;46.13;101310.16;106955;1257;25246;-60
2023/11/16 08:33:44;;;;;;;2.70;2.30;;;;;;;16.90;45.98;101319.55;106957;1254;22534;-60
2023/11/16 08:36:15;;;;;;;2.80;2.50;;;;;;;16.94;45.27;101322.88;106976;1269;22792;-60
2023/11/16 08:38:45;;;;;;;;;;;;;;;16.94;44.99;101321.12;107135;1269;22553;-60
2023/11/16 08:41:15;;;;;;;2.90;2.30;;;;;;;16.94;44.49;101325.52;107002;1256;22520;-60
2023/11/16 08:43:46;;;;;;;2.10;1.90;;;;;;;16.87;44.10;101322.48;106885;1267;22533;-60
2023/11/16 08:46:20;;;;;;;2.30;2.00;;;;;;;16.77;44.49;101329.86;106682;1256;22523;-60
2023/11/16 08:48:53;;;;;;;2.80;1.80;;;;;;;16.84;44.40;101331.54;106805;1268;24212;-59
2023/11/16 08:51:23;;;;;;;2.00;1.90;;;;;;;16.91;44.03;101332.65;106598;1258;24009;-60
2023/11/16 08:53:56;;;;;;;2.00;1.70;;;;;;;16.94;43.59;101333.92;106802;1256;22534;-60
2023/11/16 08:56:27;;;;;;;2.50;2.20;;;;;;;16.94;43.28;101329.55;106477;1256;25297;-60
2023/11/16 08:59:07;;;;;;;8.00;2.50;;;;;;;16.91;43.43;101333.51;106755;1258;22546;-60
2023/11/16 09:01:37;;;;;;;2.20;2.00;;;;;;;16.88;43.85;101329.95;106330;1257;24234;-60
2023/11/16 09:04:09;;;;;;;2.90;2.30;;;;;;;16.98;44.06;101325.19;107007;1253;22526;-60
2023/11/16 09:06:37;;;;;;;1.80;1.70;;;;;;;17.08;43.76;101327.05;106959;1256;25243;-60
2023/11/16 09:11:52;;;;;;;1.60;1.50;;;;;;;17.24;42.52;101313.80;107098;1254;25331;-60
2023/11/16 09:14:20;;;;;;;1.70;1.60;;;;;;;17.29;42.60;101317.30;107129;1269;24219;-64
2023/11/16 09:16:51;;;;;;;1.60;1.50;;;;;;;17.36;42.66;101317.48;107021;1254;25711;-66
2023/11/16 09:19:38;;;;;;;2.00;1.80;;;;;;;17.39;42.13;101328.97;107172;1253;22534;-67
2023/11/16 09:22:08;;;;;;;2.30;1.80;;;;;;;17.41;42.19;101330.81;107126;1253;22601;-69
2023/11/16 09:24:44;;;;;;;1.90;1.80;;;;;;;17.45;41.84;101321.02;107272;1257;22537;-69
2023/11/16 09:27:15;;;;;;;2.30;1.90;;;;;;;17.44;41.56;101321.93;107182;1254;22545;-68
2023/11/16 09:29:45;;;;;;;;;;;;;;;17.43;41.42;101323.88;107303;1257;22523;-68
2023/11/16 09:32:13;;;;;;;1.80;1.70;;;;;;;17.42;41.46;101322.36;107117;1256;22527;-69
2023/11/16 09:34:41;;;;;;;4.20;1.90;;;;;;;17.38;41.47;101321.45;107153;1256;22526;-67
2023/11/16 09:37:09;;;;;;;2.20;2.00;;;;;;;17.37;41.85;101324.28;106598;1257;25363;-68
2023/11/16 09:39:37;;;;;;;2.50;2.10;;;;;;;17.37;41.83;101327.98;107041;1259;22529;-68
2023/11/16 09:42:08;;;;;;;3.10;2.10;;;;;;;17.36;41.51;101328.20;106749;1275;26176;-69
2023/11/16 09:44:39;;;;;;;2.80;1.80;;;;;;;17.36;41.34;101332.95;106872;1257;24228;-69
2023/11/16 09:47:07;;;;;;;2.30;1.90;;;;;;;17.38;41.16;101335.14;106820;1260;22526;-69
2023/11/16 09:49:35;;;;;;;1.90;1.80;;;;;;;17.39;41.13;101340.90;106101;1270;1002878;-70
2023/11/16 09:52:04;;;;;;;2.30;1.70;;;;;;;17.38;40.60;101347.40;106916;1260;22537;-69
2023/11/16 09:54:34;;;;;;;4.30;1.90;;;;;;;17.32;40.03;101339.41;106762;1260;22545;-69
2023/11/16 09:57:02;;;;;;;1.80;1.70;;;;;;;17.25;40.48;101337.59;106778;1263;22630;-68
2023/11/16 09:59:44;;;;;;;3.20;2.20;;;;;;;17.24;40.57;101341.15;106600;1280;24302;-69
2023/11/16 10:02:15;;;;;;;3.00;2.20;;;;;;;17.18;41.10;101337.73;106648;1261;22537;-69
2023/11/16 10:04:44;;;;;;;3.60;1.90;;;;;;;17.23;41.30;101344.38;106352;1271;23870;-69
2023/11/16 10:07:15;;;;;;;2.30;1.80;;;;;;;17.31;41.18;101344.21;106654;1266;23341;-68
2023/11/16 10:09:44;;;;;;;;;;;;;;;17.37;41.01;101349.57;106470;1264;22521;-68
2023/11/16 10:12:12;;;;;;;2.20;2.00;;;;;;;17.36;41.29;101352.42;106408;1267;24550;-70
2023/11/16 10:14:41;;;;;;;2.10;1.90;;;;;;;17.27;42.08;101350.50;106760;1257;22542;-69
2023/11/16 10:17:09;;;;;;;2.30;1.90;;;;;;;17.32;42.05;101345.73;106484;1269;22617;-69
2023/11/16 10:19:36;;;;;;;2.20;2.00;;;;;;;17.39;41.85;101340.73;105589;1267;1002947;-68
2023/11/16 10:22:07;;;;;;;2.50;1.70;;;;;;;17.43;41.59;101344.05;106590;1267;22532;-68
2023/11/16 10:24:35;;;;;;;3.60;2.20;;;;;;;17.44;41.93;101339.64;106989;1256;25409;-68
2023/11/16 10:27:04;;;;;;;2.50;1.80;;;;;;;17.52;41.72;101341.77;106848;1256;22536;-69
2023/11/16 10:29:31;;;;;;;1.80;1.60;;;;;;;17.59;41.25;101340.80;106666;1272;25496;-70
2023/11/16 10:32:02;;;;;;;2.20;1.70;;;;;;;17.59;40.92;101344.63;106701;1253;25672;-71
2023/11/16 10:34:32;;;;;;;1.50;1.40;;;;;;;17.59;40.91;101346.77;106110;1253;1003285;-72
2023/11/16 10:37:00;;;;;;;1.70;1.60;;;;;;;17.62;40.47;101348.56;106846;1269;24254;-71
2023/11/16 10:39:28;;;;;;;1.80;1.40;;;;;;;17.64;40.12;101353.40;106461;1259;25468;-69
2023/11/16 10:41:58;;;;;;;1.90;1.10;;;;;;;17.67;40.00;101349.05;106682;1272;25373;-67
2023/11/16 10:44:27;;;;;;;2.70;1.70;;;;;;;17.70;40.03;101353.14;107353;1260;22527;-68
2023/11/16 10:46:56;;;;;;;3.30;1.80;;;;;;;17.71;40.69;101355.02;107022;1269;22542;-69
2023/11/16 10:49:25;;;;;;;1.50;1.40;;;;;;;17.72;40.46;101357.27;107011;1269;22529;-70
2023/11/16 10:51:56;;;;;;;2.90;1.90;;;;;;;17.68;39.97;101363.91;107228;1267;24398;-69
2023/11/16 10:54:25;;;;;;;2.30;1.50;;;;;;;17.67;39.73;101368.17;107038;1272;25347;-69
2023/11/16 10:56:54;;;;;;;2.80;1.70;;;;;;;17.65;39.72;101374.41;106996;1257;25350;-70
2023/11/16 10:59:23;;;;;;;2.00;1.80;;;;;;;17.61;40.00;101376.14;107119;1270;24281;-70
2023/11/16 11:01:51;;;;;;;1.90;1.70;;;;;;;17.56;39.83;101373.52;106862;1259;22542;-70
2023/11/16 11:04:19;;;;;;;1.60;1.50;;;;;;;17.51;39.59;101375.33;106752;1258;25294;-71
2023/11/16 11:06:49;;;;;;;2.70;1.90;;;;;;;17.41;39.43;101378.15;107442;1267;22562;-69
2023/11/16 11:09:22;;;;;;;2.40;2.10;;;;;;;17.34;39.76;101380.21;107038;1253;23937;-69
2023/11/16 11:11:53;;;;;;;2.00;1.70;;;;;;;17.30;40.16;101389.46;106530;1254;1003526;-68
2023/11/16 11:14:25;;;;;;;1.80;1.70;;;;;;;17.24;40.00;101387.45;107040;1270;25334;-70
2023/11/16 11:16:54;;;;;;;1.80;1.70;;;;;;;17.18;39.93;101389.77;106886;1269;25376;-70
2023/11/16 11:19:31;;;;;;;1.60;1.50;;;;;;;17.16;39.05;101388.80;106828;1269;22533;-69
2023/11/16 11:21:59;;;;;;;1.70;1.60;;;;;;;17.14;38.93;101390.49;106258;1260;1016081;-69
2023/11/16 11:24:28;;;;;;;1.90;1.80;;;;;;;17.13;38.72;101392.45;106877;1267;22564;-70
2023/11/16 11:26:56;;;;;;;1.50;1.40;;;;;;;17.09;38.64;101394.67;106735;1269;24342;-69
2023/11/16 11:29:25;;;;;;;1.90;1.80;;;;;;;17.07;38.66;101390.92;107004;1269;22552;-69